Time;durP1;ratioP1;P1;durP2;ratioP2;P2;SDS_P1;SDS_P2;PMS_P1;PMS_P2;Temp;Humidity;BMP_temperature;BMP_pressure;BME280_temperature;BME280_humidity;BME280_pressure;Samples;Min_cycle;Max_cycle;Signal;HPM_P1;HPM_P2
2022/04/14 00:00:38;;;;;;;14.15;6.65;;;11.90;99.90;;;;;;4975488;28;20501;-62
2022/04/14 00:03:03;;;;;;;11.75;6.85;;;11.90;99.90;;;;;;4975224;28;20047;-63
2022/04/14 00:05:29;;;;;;;10.80;6.70;;;11.90;99.90;;;;;;4975163;28;20098;-63
2022/04/14 00:07:54;;;;;;;13.73;6.80;;;11.80;99.90;;;;;;4975115;28;20114;-63
2022/04/14 00:10:20;;;;;;;17.48;7.82;;;11.90;99.90;;;;;;4975122;28;20493;-62
2022/04/14 00:12:48;;;;;;;14.50;7.22;;;11.80;99.90;;;;;;4957494;28;20070;-62
2022/04/14 00:15:13;;;;;;;11.43;7.55;;;11.90;99.90;;;;;;4957661;28;20405;-63
2022/04/14 00:17:39;;;;;;;14.65;7.45;;;11.70;99.90;;;;;;4957571;28;20047;-62
2022/04/14 00:20:07;;;;;;;12.25;7.35;;;11.80;99.90;;;;;;4957769;28;20038;-63
2022/04/14 00:22:33;;;;;;;14.30;7.78;;;11.70;99.90;;;;;;4974863;28;20051;-63
2022/04/14 00:24:59;;;;;;;13.05;8.23;;;11.80;99.90;;;;;;4974939;28;20042;-63
2022/04/14 00:27:25;;;;;;;10.43;7.05;;;11.90;99.90;;;;;;4958194;28;20054;-63
2022/04/14 00:29:50;;;;;;;12.38;8.00;;;11.80;99.90;;;;;;4974892;28;20512;-63
2022/04/14 00:32:16;;;;;;;12.13;7.72;;;11.90;99.90;;;;;;4957295;28;20045;-62
2022/04/14 00:34:42;;;;;;;13.30;8.25;;;11.80;99.90;;;;;;4974773;28;20048;-63
2022/04/14 00:37:11;;;;;;;14.43;7.45;;;11.70;99.90;;;;;;4957468;28;20043;-63
2022/04/14 00:39:37;;;;;;;13.20;7.43;;;11.70;99.90;;;;;;4974261;28;20039;-63
2022/04/14 00:42:13;;;;;;;14.40;7.65;;;11.60;99.90;;;;;;4957118;28;20129;-62
2022/04/14 00:44:39;;;;;;;14.18;8.65;;;11.70;99.90;;;;;;4956950;28;20555;-63
2022/04/14 00:47:06;;;;;;;14.18;9.05;;;11.80;99.90;;;;;;4974543;28;20039;-62
2022/04/14 00:49:32;;;;;;;14.02;8.90;;;11.90;99.90;;;;;;4974100;28;20077;-63
2022/04/14 00:52:02;;;;;;;18.98;8.55;;;11.60;99.90;;;;;;4957017;28;20039;-63
2022/04/14 00:54:30;;;;;;;12.32;8.15;;;11.50;99.90;;;;;;4957220;28;20049;-63
2022/04/14 00:56:57;;;;;;;13.43;8.52;;;11.60;99.90;;;;;;4956919;28;20513;-63
2022/04/14 00:59:22;;;;;;;14.82;8.10;;;11.60;99.90;;;;;;4974467;28;20117;-62
2022/04/14 01:01:48;;;;;;;12.63;7.90;;;11.60;99.90;;;;;;4974228;28;20070;-63
2022/04/14 01:04:15;;;;;;;14.63;9.30;;;11.50;99.90;;;;;;4956936;28;20050;-63
2022/04/14 01:06:41;;;;;;;12.38;7.63;;;11.20;99.90;;;;;;4974066;28;20524;-63
2022/04/14 01:09:20;;;;;;;14.90;8.15;;;11.20;99.90;;;;;;4974138;28;20035;-63
2022/04/14 01:11:51;;;;;;;14.27;8.25;;;11.30;99.90;;;;;;4941387;28;20046;-62
2022/04/14 01:14:31;;;;;;;12.57;8.95;;;11.20;99.90;;;;;;4974266;28;20152;-62
2022/04/14 01:17:00;;;;;;;11.55;8.43;;;11.20;99.90;;;;;;4962371;28;20046;-63
2022/04/14 01:19:26;;;;;;;14.30;8.77;;;11.30;99.90;;;;;;4963035;28;20045;-62
2022/04/14 01:22:15;;;;;;;11.43;7.88;;;11.20;99.90;;;;;;4980629;28;20089;-62
2022/04/14 01:24:41;;;;;;;14.80;8.38;;;11.20;99.90;;;;;;4963457;28;20058;-63
2022/04/14 01:27:07;;;;;;;13.27;8.30;;;11.10;99.90;;;;;;4963470;28;20563;-63
2022/04/14 01:29:34;;;;;;;16.58;8.52;;;11.00;99.90;;;;;;4962892;28;20088;-63
2022/04/14 01:32:02;;;;;;;13.27;7.90;;;10.90;99.90;;;;;;4947413;28;20448;-63
2022/04/14 01:34:31;;;;;;;13.38;8.10;;;10.80;99.90;;;;;;4980561;28;20414;-63
2022/04/14 01:36:58;;;;;;;13.40;8.65;;;10.80;99.90;;;;;;4980449;28;20045;-63
2022/04/14 01:39:24;;;;;;;15.32;9.50;;;11.00;99.90;;;;;;4980477;28;20042;-63
2022/04/14 01:41:49;;;;;;;15.82;8.10;;;11.00;99.90;;;;;;4980381;28;20074;-63
2022/04/14 01:44:15;;;;;;;14.65;8.82;;;11.00;99.90;;;;;;4963055;28;20121;-63
2022/04/14 01:46:41;;;;;;;9.60;6.20;;;10.70;99.90;;;;;;4947102;28;20090;-63
2022/04/14 01:49:10;;;;;;;8.68;6.28;;;10.70;99.90;;;;;;4980249;28;20042;-63
2022/04/14 01:51:36;;;;;;;9.98;6.70;;;10.40;99.90;;;;;;4980450;28;20042;-63
2022/04/14 01:54:03;;;;;;;14.88;9.18;;;10.30;99.90;;;;;;4946951;28;20074;-63
2022/04/14 01:56:29;;;;;;;14.52;8.63;;;10.20;99.90;;;;;;4947145;28;20054;-63
2022/04/14 01:58:55;;;;;;;13.98;9.13;;;;;;;;;;4979953;28;20043;-62
2022/04/14 02:01:21;;;;;;;19.55;9.35;;;10.30;99.90;;;;;;4980252;28;20085;-63
2022/04/14 02:03:47;;;;;;;17.55;9.48;;;10.30;99.90;;;;;;4980020;28;20077;-63
2022/04/14 02:06:13;;;;;;;15.63;10.32;;;10.40;99.90;;;;;;4980313;28;20408;-63
2022/04/14 02:08:39;;;;;;;15.30;10.38;;;10.20;99.90;;;;;;4963055;28;20544;-63
2022/04/14 02:11:05;;;;;;;16.30;11.00;;;10.40;99.90;;;;;;4980064;28;20090;-63
2022/04/14 02:13:31;;;;;;;17.95;11.13;;;10.40;99.90;;;;;;4964264;28;20043;-63
2022/04/14 02:15:57;;;;;;;14.45;10.88;;;10.30;99.90;;;;;;4960579;29;20484;-62
2022/04/14 02:18:22;;;;;;;16.65;10.82;;;10.40;99.90;;;;;;4944205;29;20410;-62
2022/04/14 02:20:48;;;;;;;15.25;9.85;;;10.40;99.90;;;;;;4960902;29;20047;-62
2022/04/14 02:23:13;;;;;;;19.45;12.68;;;10.30;99.90;;;;;;4943423;29;20512;-62
2022/04/14 02:25:39;;;;;;;17.60;10.93;;;10.40;99.90;;;;;;4960771;28;20047;-62
2022/04/14 02:28:04;;;;;;;19.55;12.75;;;10.30;99.90;;;;;;4957103;28;20498;-62
2022/04/14 02:30:30;;;;;;;19.05;12.98;;;10.10;99.90;;;;;;4957373;29;20545;-63
2022/04/14 02:32:56;;;;;;;15.27;12.30;;;10.50;99.90;;;;;;4940656;29;20379;-62
2022/04/14 02:35:21;;;;;;;18.73;12.88;;;10.40;99.90;;;;;;4940580;29;20055;-62
2022/04/14 02:37:47;;;;;;;17.92;12.40;;;10.30;99.90;;;;;;4957679;29;20036;-62
2022/04/14 02:40:13;;;;;;;17.40;11.98;;;10.40;99.90;;;;;;4957557;29;20083;-62
2022/04/14 02:42:41;;;;;;;18.70;12.10;;;;;;;;;;4957381;29;20047;-62
2022/04/14 02:45:07;;;;;;;17.02;12.18;;;10.10;99.90;;;;;;4963309;28;20071;-62
2022/04/14 02:47:35;;;;;;;16.05;12.32;;;10.00;99.90;;;;;;4976721;28;20397;-63
2022/04/14 02:50:00;;;;;;;15.13;11.50;;;9.80;99.90;;;;;;4976732;28;20078;-62
2022/04/14 02:52:26;;;;;;;18.88;12.80;;;9.90;99.90;;;;;;4976702;28;20137;-62
2022/04/14 02:54:52;;;;;;;15.57;10.95;;;;;;;;;;4976421;28;20126;-62
2022/04/14 02:57:17;;;;;;;20.88;13.27;;;9.80;99.90;;;;;;4976306;28;20074;-62
2022/04/14 02:59:43;;;;;;;17.85;12.90;;;9.70;99.90;;;;;;4976496;28;20125;-63
2022/04/14 03:02:08;;;;;;;22.55;14.73;;;9.80;99.90;;;;;;4976485;28;20042;-62
2022/04/14 03:04:34;;;;;;;19.35;13.57;;;9.90;99.90;;;;;;4976133;28;20445;-63
2022/04/14 03:06:59;;;;;;;18.40;13.05;;;9.80;99.90;;;;;;4959163;28;20069;-62
2022/04/14 03:09:25;;;;;;;23.17;14.05;;;9.80;99.90;;;;;;4959064;28;20397;-62
2022/04/14 03:11:51;;;;;;;22.98;14.55;;;9.90;99.90;;;;;;4958714;28;20043;-62
2022/04/14 03:14:16;;;;;;;21.40;15.32;;;9.80;99.90;;;;;;4976204;28;20445;-63
2022/04/14 03:16:42;;;;;;;25.83;17.10;;;9.60;99.90;;;;;;4975997;28;20039;-62
2022/04/14 03:19:07;;;;;;;23.42;15.93;;;9.70;99.90;;;;;;4976207;28;20035;-62
2022/04/14 03:21:33;;;;;;;23.25;16.42;;;9.60;99.90;;;;;;4958788;28;20050;-62
2022/04/14 03:23:58;;;;;;;19.25;15.02;;;9.60;99.90;;;;;;4958454;28;20130;-62
2022/04/14 03:26:24;;;;;;;19.83;15.07;;;9.80;99.90;;;;;;4958679;28;20042;-62
2022/04/14 03:28:49;;;;;;;24.60;15.40;;;9.70;99.90;;;;;;4975780;28;20385;-63
2022/04/14 03:31:15;;;;;;;24.45;16.40;;;9.70;99.90;;;;;;4942323;28;20446;-62
2022/04/14 03:33:41;;;;;;;22.05;15.70;;;9.70;99.90;;;;;;4975886;28;20390;-61
2022/04/14 03:36:06;;;;;;;27.58;16.55;;;9.70;99.90;;;;;;4975703;28;20516;-61
2022/04/14 03:38:32;;;;;;;28.42;16.40;;;9.70;99.90;;;;;;4975594;28;20038;-61
2022/04/14 03:40:59;;;;;;;22.58;16.77;;;9.60;99.90;;;;;;4958306;28;20047;-63
2022/04/14 03:43:25;;;;;;;29.70;18.77;;;;;;;;;;4975465;28;20038;-63
2022/04/14 03:45:51;;;;;;;29.63;18.00;;;9.70;99.90;;;;;;4975339;28;20043;-62
2022/04/14 03:48:17;;;;;;;26.70;18.92;;;8.30;99.90;;;;;;4975545;28;20043;-62
2022/04/14 03:50:42;;;;;;;22.27;15.85;;;9.70;99.90;;;;;;4975335;28;20101;-62
2022/04/14 03:53:08;;;;;;;23.08;17.67;;;9.60;99.90;;;;;;4975320;28;20401;-62
2022/04/14 03:55:33;;;;;;;27.25;16.75;;;9.60;99.90;;;;;;4957990;28;20078;-62
2022/04/14 03:57:59;;;;;;;23.45;17.48;;;9.60;99.90;;;;;;4942280;28;20042;-62
2022/04/14 04:00:25;;;;;;;26.23;17.25;;;9.60;99.90;;;;;;4957852;28;20531;-63
2022/04/14 04:02:51;;;;;;;22.08;17.33;;;9.60;99.90;;;;;;4975539;28;20117;-62
2022/04/14 04:05:17;;;;;;;22.80;16.58;;;9.40;99.90;;;;;;4957864;28;20055;-62
2022/04/14 04:07:42;;;;;;;23.15;15.65;;;9.50;99.90;;;;;;4958106;28;20046;-62
2022/04/14 04:10:08;;;;;;;23.27;16.13;;;9.50;99.90;;;;;;4957714;28;20046;-62
2022/04/14 04:12:34;;;;;;;21.40;15.30;;;9.40;99.90;;;;;;4957574;28;20043;-62
2022/04/14 04:14:59;;;;;;;23.45;15.77;;;9.10;99.90;;;;;;4974857;28;20042;-62
2022/04/14 04:17:25;;;;;;;19.70;13.20;;;9.30;99.90;;;;;;4975170;28;20043;-62
2022/04/14 04:19:51;;;;;;;23.23;15.13;;;;;;;;;;4948590;28;20091;-62
2022/04/14 04:22:16;;;;;;;27.38;16.40;;;9.10;99.90;;;;;;4954295;28;20031;-62
2022/04/14 04:24:42;;;;;;;22.77;14.52;;;;;;;;;;4955340;28;20035;-62
2022/04/14 04:27:08;;;;;;;27.80;17.42;;;;;;;;;;4970088;28;20049;-63
2022/04/14 04:29:34;;;;;;;30.70;20.42;;;;;;;;;;4966440;28;20068;-64
2022/04/14 04:32:01;;;;;;;30.00;19.67;;;;;;;;;;4966368;28;20047;-62
2022/04/14 04:34:26;;;;;;;35.30;22.05;;;9.20;99.90;;;;;;4949557;28;20094;-62
2022/04/14 04:36:52;;;;;;;33.05;21.98;;;;;;;;;;4955343;28;20074;-62
2022/04/14 04:39:18;;;;;;;30.30;20.58;;;9.30;99.90;;;;;;4956532;28;20043;-62
2022/04/14 04:41:44;;;;;;;34.58;22.42;;;;;;;;;;4964953;28;20057;-62
2022/04/14 04:44:10;;;;;;;35.90;23.33;;;;;;;;;;4951733;29;20098;-62
2022/04/14 04:46:35;;;;;;;33.33;22.63;;;9.40;99.90;;;;;;4952446;28;20486;-62
2022/04/14 04:49:02;;;;;;;32.72;21.13;;;9.40;99.90;;;;;;4971034;28;20050;-62
2022/04/14 04:51:28;;;;;;;24.80;18.00;;;9.10;99.90;;;;;;4970470;28;20129;-62
2022/04/14 04:53:54;;;;;;;24.67;16.08;;;;;;;;;;4953937;28;20501;-62
2022/04/14 04:56:20;;;;;;;23.63;14.50;;;;;;;;;;4953756;28;20082;-62
2022/04/14 04:58:46;;;;;;;22.98;15.60;;;;;;;;;;4953402;28;20599;-64
2022/04/14 05:01:12;;;;;;;22.80;16.35;;;;;;;;;;4970660;28;20049;-64
2022/04/14 05:03:38;;;;;;;26.40;18.58;;;9.00;99.90;;;;;;4953039;28;20080;-64
2022/04/14 05:06:05;;;;;;;32.20;19.13;;;;;;;;;;4954595;28;20042;-64
2022/04/14 05:08:31;;;;;;;23.17;13.63;;;;;;;;;;4934561;29;20473;-65
2022/04/14 05:10:57;;;;;;;17.85;11.90;;;;;;;;;;4953618;28;20117;-64
2022/04/14 05:13:23;;;;;;;16.83;12.05;;;8.70;99.90;;;;;;4967844;28;20122;-64
2022/04/14 05:15:48;;;;;;;20.08;14.05;;;8.60;99.90;;;;;;4942284;29;20043;-63
2022/04/14 05:18:14;;;;;;;21.88;15.73;;;;;;;;;;4951578;29;20444;-64
2022/04/14 05:20:42;;;;;;;21.33;15.40;;;;;;;;;;4951476;29;20055;-64
2022/04/14 05:23:09;;;;;;;20.70;13.77;;;8.90;99.90;;;;;;4934328;29;20409;-63
2022/04/14 05:25:39;;;;;;;20.52;14.50;;;8.90;99.90;;;;;;4934751;29;20046;-63
2022/04/14 05:28:05;;;;;;;19.42;13.70;;;;;;;;;;4918211;29;20094;-64
2022/04/14 05:30:31;;;;;;;26.38;18.75;;;;;;;;;;4918226;29;20130;-64
2022/04/14 05:32:56;;;;;;;31.73;19.02;;;9.10;99.90;;;;;;4951399;29;20126;-64
2022/04/14 05:35:22;;;;;;;28.70;18.27;;;9.00;99.90;;;;;;4934115;29;20101;-63
2022/04/14 05:37:48;;;;;;;37.97;21.00;;;;;;;;;;4951660;29;20430;-63
2022/04/14 05:40:14;;;;;;;27.33;19.38;;;;;;;;;;4918096;29;20054;-63
2022/04/14 05:42:46;;;;;;;24.83;17.63;;;9.40;99.90;;;;;;4951442;29;20044;-63
2022/04/14 05:45:15;;;;;;;23.60;17.13;;;9.20;99.90;;;;;;4925548;28;20046;-63
2022/04/14 05:47:41;;;;;;;29.17;19.52;;;9.30;99.90;;;;;;4953099;28;20437;-63
2022/04/14 05:50:07;;;;;;;34.95;21.88;;;9.40;99.90;;;;;;4953168;28;20089;-63
2022/04/14 05:52:32;;;;;;;33.20;20.58;;;9.50;99.90;;;;;;4953009;28;20043;-64
2022/04/14 05:55:01;;;;;;;37.60;24.73;;;9.60;99.90;;;;;;4953480;28;20034;-64
2022/04/14 05:57:28;;;;;;;34.63;23.73;;;9.80;99.90;;;;;;4970313;28;20050;-64
2022/04/14 05:59:53;;;;;;;30.83;21.52;;;10.00;99.90;;;;;;4970654;28;20096;-64
2022/04/14 06:02:19;;;;;;;37.22;24.67;;;;;;;;;;4955571;28;20125;-63
2022/04/14 06:04:45;;;;;;;38.47;24.02;;;;;;;;;;4953193;28;20063;-64
2022/04/14 06:07:11;;;;;;;36.53;23.88;;;;;;;;;;4977773;28;20049;-64
2022/04/14 06:09:37;;;;;;;34.47;23.48;;;;;;;;;;4950060;28;20435;-62
2022/04/14 06:12:03;;;;;;;40.13;24.88;;;10.90;99.90;;;;;;4946262;28;20082;-64
2022/04/14 06:14:30;;;;;;;38.70;23.73;;;;;;;;;;4961383;28;20134;-65
2022/04/14 06:16:56;;;;;;;38.00;23.90;;;;;;;;;;4952237;28;20617;-64
2022/04/14 06:19:22;;;;;;;33.22;23.35;;;11.50;99.90;;;;;;4954051;28;20524;-63
2022/04/14 06:21:47;;;;;;;37.42;23.42;;;11.80;99.90;;;;;;4960795;28;20078;-65
2022/04/14 06:24:13;;;;;;;37.50;24.05;;;;;;;;;;4969048;28;20374;-64
2022/04/14 06:26:39;;;;;;;42.65;27.33;;;;;;;;;;4945339;28;20065;-63
2022/04/14 06:29:05;;;;;;;38.92;25.00;;;;;;;;;;4963265;28;20042;-64
2022/04/14 06:31:31;;;;;;;43.38;26.38;;;;;;;;;;4959932;28;20617;-64
2022/04/14 06:33:57;;;;;;;42.55;26.60;;;;;;;;;;4960147;28;20047;-64
2022/04/14 06:36:23;;;;;;;44.47;26.90;;;;;;;;;;4960394;28;20096;-64
2022/04/14 06:38:49;;;;;;;40.90;25.27;;;;;;;;;;4961695;28;20050;-64
2022/04/14 06:41:15;;;;;;;42.92;26.52;;;;;;;;;;4960669;28;20078;-64
2022/04/14 06:43:41;;;;;;;35.45;24.55;;;;;;;;;;4959078;28;21379;-63
2022/04/14 06:46:07;;;;;;;39.30;24.92;;;;;;;;;;4941939;28;20049;-64
2022/04/14 06:48:33;;;;;;;36.28;23.33;;;;;;;;;;4940458;28;20081;-63
2022/04/14 06:50:59;;;;;;;35.55;23.05;;;13.60;99.90;;;;;;4958387;28;20050;-64
2022/04/14 06:53:25;;;;;;;37.15;24.13;;;;;;;;;;4961145;28;20050;-64
2022/04/14 06:55:53;;;;;;;33.92;22.85;;;;;;;;;;4964595;28;20083;-64
2022/04/14 06:58:19;;;;;;;34.80;23.60;;;;;;;;;;4961718;28;20053;-64
2022/04/14 07:00:45;;;;;;;37.22;23.67;;;;;;;;;;4946013;28;20054;-63
2022/04/14 07:03:10;;;;;;;37.33;23.65;;;14.30;99.90;;;;;;4960930;28;20146;-63
2022/04/14 07:05:36;;;;;;;38.17;22.95;;;;;;;;;;4962728;28;20051;-63
2022/04/14 07:08:02;;;;;;;31.65;21.70;;;;;;;;;;4963489;28;20524;-64
2022/04/14 07:10:28;;;;;;;31.45;20.35;;;;;;;;;;4961338;28;20057;-65
2022/04/14 07:12:55;;;;;;;37.95;21.90;;;;;;;;;;4929093;28;20082;-65
2022/04/14 07:15:21;;;;;;;28.95;19.08;;;14.40;99.90;;;;;;4945018;28;20501;-64
2022/04/14 07:17:47;;;;;;;34.40;20.13;;;14.50;99.90;;;;;;4928704;28;20047;-65
2022/04/14 07:20:13;;;;;;;32.08;19.80;;;14.50;99.90;;;;;;4960586;28;20050;-65
2022/04/14 07:23:06;;;;;;;32.67;19.00;;;14.50;99.90;;;;;;4962697;28;20054;-64
2022/04/14 07:25:33;;;;;;;30.50;20.92;;;14.50;99.90;;;;;;4951367;28;20594;-64
2022/04/14 07:28:00;;;;;;;30.98;19.30;;;;;;;;;;4964749;28;20092;-64
2022/04/14 07:30:26;;;;;;;29.23;17.95;;;;;;;;;;4961485;28;20051;-64
2022/04/14 07:32:52;;;;;;;31.33;18.40;;;;;;;;;;4961628;28;20039;-64
2022/04/14 07:35:21;;;;;;;29.50;17.83;;;;;;;;;;4959257;28;20047;-64
2022/04/14 07:37:47;;;;;;;27.13;16.17;;;;;;;;;;4939821;28;20082;-64
2022/04/14 07:40:13;;;;;;;26.13;16.83;;;;;;;;;;4962231;28;20161;-64
2022/04/14 07:42:41;;;;;;;29.52;18.30;;;14.90;99.90;;;;;;4942315;28;21409;-64
2022/04/14 07:45:09;;;;;;;31.58;19.52;;;14.80;99.90;;;;;;4942792;28;20519;-64
2022/04/14 07:47:35;;;;;;;27.38;17.25;;;;;;;;;;4962066;28;20081;-65
2022/04/14 07:50:01;;;;;;;19.73;13.93;;;;;;;;;;4943887;28;20062;-65
2022/04/14 07:52:27;;;;;;;23.27;15.63;;;15.00;99.90;;;;;;4958773;28;20172;-65
2022/04/14 07:54:52;;;;;;;23.23;16.05;;;15.10;99.90;;;;;;4963185;28;20641;-64
2022/04/14 07:57:18;;;;;;;31.20;17.15;;;;;;;;;;4961293;28;20039;-64
2022/04/14 07:59:44;;;;;;;24.00;15.85;;;;;;;;;;4961800;28;20523;-64
2022/04/14 08:02:10;;;;;;;30.13;17.52;;;15.10;99.90;;;;;;4957139;28;20064;-64
2022/04/14 08:04:35;;;;;;;21.00;14.40;;;15.20;99.90;;;;;;4956951;28;20517;-64
2022/04/14 08:07:02;;;;;;;22.02;15.18;;;15.20;99.90;;;;;;4943699;28;20555;-64
2022/04/14 08:09:27;;;;;;;25.05;14.85;;;15.20;99.90;;;;;;4944123;28;20069;-64
2022/04/14 08:11:53;;;;;;;21.00;15.48;;;15.40;99.90;;;;;;4945453;28;20421;-64
2022/04/14 08:14:18;;;;;;;25.13;16.05;;;15.40;99.90;;;;;;4944818;28;20046;-64
2022/04/14 08:16:44;;;;;;;23.55;16.48;;;15.50;99.90;;;;;;4948242;28;20046;-64
2022/04/14 08:19:09;;;;;;;22.25;15.82;;;15.50;99.90;;;;;;4951740;28;20043;-63
2022/04/14 08:21:35;;;;;;;20.50;14.90;;;15.70;99.90;;;;;;4960864;28;20763;-63
2022/04/14 08:24:02;;;;;;;22.75;15.13;;;15.80;99.90;;;;;;4957213;28;20039;-63
2022/04/14 08:26:27;;;;;;;22.55;15.32;;;15.80;99.90;;;;;;4947497;28;20061;-63
2022/04/14 08:28:55;;;;;;;20.55;15.02;;;15.90;99.90;;;;;;4950399;28;20042;-63
2022/04/14 08:31:21;;;;;;;21.75;15.57;;;16.00;99.90;;;;;;4944658;28;20054;-64
2022/04/14 08:33:49;;;;;;;17.17;13.23;;;16.10;99.90;;;;;;4947989;28;20058;-64
2022/04/14 08:36:15;;;;;;;19.98;14.90;;;16.20;99.90;;;;;;4958720;28;20047;-64
2022/04/14 08:38:45;;;;;;;21.05;15.13;;;16.20;99.90;;;;;;4941083;28;20058;-63
2022/04/14 08:41:13;;;;;;;21.73;15.05;;;16.20;99.90;;;;;;4942380;28;20861;-63
2022/04/14 08:43:47;;;;;;;22.35;14.90;;;16.40;99.90;;;;;;4956005;28;20879;-64
2022/04/14 08:46:15;;;;;;;18.90;13.57;;;16.40;99.90;;;;;;4954309;28;20496;-64
2022/04/14 08:48:42;;;;;;;20.17;13.95;;;16.40;99.90;;;;;;4951937;28;20078;-64
2022/04/14 08:51:10;;;;;;;21.52;14.55;;;16.60;99.90;;;;;;4939336;28;20527;-63
2022/04/14 08:53:38;;;;;;;20.10;15.10;;;16.30;99.90;;;;;;4941829;28;20108;-64
2022/04/14 08:56:06;;;;;;;21.02;15.02;;;18.30;99.90;;;;;;4944295;28;20203;-63
2022/04/14 08:58:35;;;;;;;19.55;15.30;;;16.50;99.90;;;;;;4951516;28;20050;-63
2022/04/14 09:01:01;;;;;;;21.48;15.15;;;16.80;99.90;;;;;;4947067;28;20193;-63
2022/04/14 09:03:28;;;;;;;21.77;15.00;;;17.10;99.90;;;;;;4955107;28;20133;-65
2022/04/14 09:05:55;;;;;;;22.77;15.68;;;16.80;99.90;;;;;;4941935;28;20990;-65
2022/04/14 09:08:21;;;;;;;21.25;14.38;;;16.80;99.90;;;;;;4942339;28;20448;-64
2022/04/14 09:10:48;;;;;;;19.98;15.27;;;17.10;99.90;;;;;;4952199;28;20054;-65
2022/04/14 09:13:14;;;;;;;17.63;12.63;;;17.10;99.90;;;;;;4950010;28;20138;-64
2022/04/14 09:15:40;;;;;;;21.25;14.32;;;17.30;99.90;;;;;;4944754;28;20100;-64
2022/04/14 09:18:07;;;;;;;18.48;13.70;;;17.50;99.90;;;;;;4943635;28;20445;-64
2022/04/14 09:20:36;;;;;;;18.95;14.50;;;17.40;99.90;;;;;;4941957;28;20749;-64
2022/04/14 09:23:10;;;;;;;22.40;14.80;;;17.50;99.90;;;;;;4932044;28;20055;-64
2022/04/14 09:25:36;;;;;;;16.92;13.48;;;17.50;99.90;;;;;;4913259;28;20047;-64
2022/04/14 09:28:21;;;;;;;17.20;14.35;;;17.80;99.90;;;;;;4945462;28;20579;-64
2022/04/14 09:31:03;;;;;;;17.75;13.43;;;18.20;99.90;;;;;;4955959;28;20134;-65
2022/04/14 09:33:30;;;;;;;14.52;11.07;;;18.10;99.90;;;;;;4952753;28;20299;-63
2022/04/14 09:36:05;;;;;;;21.10;13.48;;;18.20;99.90;;;;;;4936062;28;20054;-65
2022/04/14 09:38:56;;;;;;;16.48;11.27;;;18.30;99.90;;;;;;4938072;28;20042;-64
2022/04/14 09:41:33;;;;;;;17.40;11.05;;;18.70;99.90;;;;;;4941163;28;20066;-64
2022/04/14 09:44:05;;;;;;;12.23;9.13;;;18.60;99.90;;;;;;4932966;28;20159;-67
2022/04/14 09:46:31;;;;;;;13.98;10.25;;;18.70;99.90;;;;;;4946373;28;20100;-66
2022/04/14 09:49:03;;;;;;;12.90;9.85;;;18.80;99.90;;;;;;4957830;28;20393;-65
2022/04/14 09:51:29;;;;;;;14.50;8.60;;;18.90;99.90;;;;;;4958142;28;20054;-65
2022/04/14 09:54:12;;;;;;;14.48;10.10;;;19.00;99.90;;;;;;4966044;28;20048;-65
2022/04/14 09:56:46;;;;;;;16.83;10.02;;;19.20;99.90;;;;;;4932585;28;20074;-66
2022/04/14 09:59:14;;;;;;;15.43;9.83;;;19.30;99.90;;;;;;4954981;28;20572;-68
2022/04/14 10:01:40;;;;;;;14.60;9.85;;;19.10;99.90;;;;;;4967900;28;20050;-67
2022/04/14 10:04:07;;;;;;;15.77;10.68;;;19.10;99.90;;;;;;4957710;28;20063;-67
2022/04/14 10:06:33;;;;;;;15.80;10.43;;;18.90;99.90;;;;;;4960099;28;20791;-65
2022/04/14 10:08:59;;;;;;;14.80;9.73;;;19.10;99.90;;;;;;4948047;28;20105;-66
2022/04/14 10:11:26;;;;;;;12.75;8.65;;;19.40;99.90;;;;;;4940364;28;20662;-67
2022/04/14 10:13:51;;;;;;;14.10;9.43;;;19.20;99.90;;;;;;4945080;28;20082;-66
2022/04/14 10:16:23;;;;;;;14.30;9.40;;;19.40;99.90;;;;;;4956360;28;20213;-65
2022/04/14 10:18:49;;;;;;;9.80;6.18;;;19.30;99.90;;;;;;4959145;28;20580;-65
2022/04/14 10:21:16;;;;;;;7.82;5.68;;;19.40;99.90;;;;;;4946783;28;20043;-65
2022/04/14 10:23:41;;;;;;;8.60;5.30;;;19.60;99.90;;;;;;4922233;28;20524;-65
2022/04/14 10:26:09;;;;;;;7.47;4.78;;;19.60;99.90;;;;;;4933946;28;20071;-64
2022/04/14 10:28:36;;;;;;;7.32;4.22;;;19.80;99.90;;;;;;4944855;28;20054;-64
2022/04/14 10:31:02;;;;;;;7.97;4.63;;;19.40;99.90;;;;;;4963004;28;20451;-64
2022/04/14 10:33:29;;;;;;;9.20;4.68;;;19.60;99.90;;;;;;4939655;28;20042;-64
2022/04/14 10:35:55;;;;;;;8.45;4.93;;;19.60;99.90;;;;;;4930486;28;20947;-65
2022/04/14 10:38:23;;;;;;;9.05;5.65;;;19.20;99.90;;;;;;4960889;28;20043;-65
2022/04/14 10:40:59;;;;;;;9.27;5.20;;;19.10;99.90;;;;;;4963697;28;20050;-65
2022/04/14 10:43:26;;;;;;;6.90;5.40;;;19.00;99.90;;;;;;4947400;28;20081;-65
2022/04/14 10:45:54;;;;;;;8.73;3.33;;;19.00;99.90;;;;;;4965495;28;20085;-64
2022/04/14 10:48:31;;;;;;;10.18;4.47;;;19.20;99.90;;;;;;4939665;28;20093;-65
2022/04/14 10:51:19;;;;;;;7.90;4.07;;;19.30;99.90;;;;;;4928945;28;20057;-65
2022/04/14 10:53:59;;;;;;;8.05;4.60;;;19.50;99.90;;;;;;4929762;28;20055;-65
2022/04/14 10:56:33;;;;;;;11.30;5.90;;;19.50;99.90;;;;;;4945383;28;20051;-65
2022/04/14 10:59:02;;;;;;;9.25;6.15;;;19.60;99.90;;;;;;4965746;28;20050;-65
2022/04/14 11:01:46;;;;;;;10.32;6.78;;;19.30;99.90;;;;;;4943004;28;20081;-67
2022/04/14 11:04:49;;;;;;;9.80;5.57;;;19.50;99.90;;;;;;4943043;28;20057;-65
2022/04/14 11:07:23;;;;;;;11.90;6.15;;;19.60;99.90;;;;;;4959880;28;20583;-64
2022/04/14 11:09:52;;;;;;;10.77;5.57;;;19.60;99.90;;;;;;4955472;28;20104;-65
2022/04/14 11:12:27;;;;;;;8.02;4.72;;;19.90;99.90;;;;;;4958558;28;20054;-65
2022/04/14 11:14:55;;;;;;;;;;;19.90;99.90;;;;;;4944837;28;20050;-64
2022/04/14 11:17:47;;;;;;;11.95;5.70;;;19.50;99.90;;;;;;4943471;28;19926;-65
2022/04/14 11:20:19;;;;;;;7.78;2.95;;;19.50;99.90;;;;;;4944989;28;20057;-66
2022/04/14 11:23:03;;;;;;;5.85;2.65;;;19.50;99.90;;;;;;4962330;28;20051;-65
2022/04/14 11:25:41;;;;;;;4.28;2.80;;;19.90;99.90;;;;;;4944442;28;20480;-66
2022/04/14 11:28:20;;;;;;;6.97;2.90;;;18.80;99.90;;;;;;4944457;28;20050;-66
2022/04/14 11:30:48;;;;;;;7.78;3.05;;;18.80;99.90;;;;;;4944901;28;20046;-67
2022/04/14 11:33:20;;;;;;;6.28;3.50;;;18.70;99.90;;;;;;4960662;28;20054;-68
2022/04/14 11:35:47;;;;;;;8.80;4.07;;;19.10;99.90;;;;;;4932047;28;20088;-67
2022/04/14 11:38:53;;;;;;;6.68;3.72;;;19.10;99.90;;;;;;4963812;28;20512;-66
2022/04/14 11:41:31;;;;;;;8.48;3.75;;;18.90;99.90;;;;;;4946582;28;20145;-66
2022/04/14 11:43:57;;;;;;;7.43;3.85;;;18.90;99.90;;;;;;4961457;28;20145;-64
2022/04/14 11:46:26;;;;;;;8.15;4.53;;;19.00;99.90;;;;;;4941124;28;20588;-65
2022/04/14 11:48:52;;;;;;;8.88;4.82;;;18.60;99.90;;;;;;4961410;28;20085;-65
2022/04/14 11:51:18;;;;;;;9.20;4.82;;;18.70;99.90;;;;;;4929258;28;21186;-65
2022/04/14 11:53:43;;;;;;;7.90;4.32;;;18.70;99.90;;;;;;4960897;28;20185;-65
2022/04/14 11:56:17;;;;;;;9.57;3.35;;;18.40;99.90;;;;;;4961662;28;20153;-66
2022/04/14 11:58:43;;;;;;;5.55;2.92;;;18.60;99.90;;;;;;4944756;28;20381;-65
2022/04/14 12:01:08;;;;;;;6.28;2.95;;;18.00;99.90;;;;;;4940231;28;20841;-66
2022/04/14 12:03:34;;;;;;;5.80;2.05;;;18.40;99.90;;;;;;4928466;28;20543;-65
2022/04/14 12:06:14;;;;;;;3.90;1.65;;;18.10;99.90;;;;;;4959778;28;20050;-67
2022/04/14 12:08:39;;;;;;;7.45;3.72;;;18.30;99.90;;;;;;4944892;28;20058;-62
2022/04/14 12:11:13;;;;;;;8.13;3.33;;;18.20;99.90;;;;;;4964988;28;20051;-64
2022/04/14 12:13:40;;;;;;;7.95;3.15;;;18.40;99.90;;;;;;4946069;28;20124;-63
2022/04/14 12:16:07;;;;;;;6.97;3.13;;;18.70;99.90;;;;;;4964643;28;20046;-62
2022/04/14 12:18:34;;;;;;;4.07;1.85;;;18.60;99.90;;;;;;4944644;28;20729;-61
2022/04/14 12:21:00;;;;;;;8.18;3.10;;;18.70;99.90;;;;;;4956404;28;20065;-64
2022/04/14 12:23:26;;;;;;;6.72;2.35;;;18.60;99.90;;;;;;4958862;28;20428;-64
2022/04/14 12:25:53;;;;;;;7.55;3.45;;;18.60;99.90;;;;;;4936530;28;20562;-64
2022/04/14 12:28:18;;;;;;;6.55;3.55;;;18.50;99.90;;;;;;4947125;28;20051;-64
2022/04/14 12:30:44;;;;;;;8.30;4.78;;;18.80;99.90;;;;;;4954540;28;20050;-64
2022/04/14 12:33:10;;;;;;;10.82;5.55;;;19.00;99.90;;;;;;4961012;28;20149;-64
2022/04/14 12:35:43;;;;;;;11.80;5.78;;;18.60;99.90;;;;;;4945682;28;20539;-64
2022/04/14 12:38:24;;;;;;;10.30;4.07;;;18.80;99.90;;;;;;4963483;28;20142;-64
2022/04/14 12:40:59;;;;;;;8.73;3.92;;;18.40;99.90;;;;;;4943136;28;20555;-65
2022/04/14 12:43:28;;;;;;;10.25;4.90;;;18.60;99.90;;;;;;4944312;28;20186;-65
2022/04/14 12:45:54;;;;;;;10.95;5.20;;;18.30;99.90;;;;;;4943036;28;20086;-65
2022/04/14 12:48:27;;;;;;;7.40;3.92;;;18.70;99.90;;;;;;4961178;28;20074;-64
2022/04/14 12:50:57;;;;;;;6.78;3.40;;;18.70;99.90;;;;;;4944493;28;20046;-65
2022/04/14 12:53:24;;;;;;;7.55;3.75;;;18.70;99.90;;;;;;4959543;28;20042;-64
2022/04/14 12:55:50;;;;;;;8.23;4.00;;;18.60;99.90;;;;;;4943598;28;20043;-64